Data for 01/11/2014

Time Sea-Level Adjusted Pressure Absolute Pressure Temperature Relative Humidity Dew Point   
(mb) (inHg) (mb) (inHg) (C) (F) (%) (C) (F)
00:05 1014 29.94 843 24.89 2.3 36.1 51 -6.9 19.5
00:10 1014 29.94 843 24.89 2 35.5 51 -7.2 19
00:15 1014 29.94 843 24.89 1.6 34.9 51 -7.4 18.7
00:20 1014 29.94 843 24.89 1.6 34.9 52 -7.3 18.8
00:25 1014 29.94 843 24.89 1.7 35.1 51 -7.3 18.9
00:30 1014 29.94 843 24.89 1.8 35.2 51 -7.2 19
00:35 1014 29.94 843 24.89 1.8 35.3 51 -7.3 18.8
00:40 1014 29.94 843 24.89 1.9 35.5 50 -7.3 18.8
00:45 1014 29.94 843 24.89 1.9 35.5 50 -7.3 18.9
00:50 1014 29.94 843 24.89 1.9 35.4 51 -7.2 19.1
00:55 1014 29.94 843 24.89 1.8 35.3 52 -7 19.3
01:00 1014 29.94 843 24.89 1.8 35.2 52 -7 19.5
01:05 1014 29.94 843 24.89 1.8 35.2 52 -7.1 19.2
01:10 1014 29.94 843 24.89 2 35.6 51 -7.1 19.3
01:15 1014 29.94 843 24.89 2.1 35.8 51 -6.9 19.6
01:20 1014 29.94 843 24.89 2 35.6 52 -6.8 19.7
01:25 1013 29.91 843 24.89 1.8 35.2 53 -6.8 19.8
01:30 1013 29.91 843 24.89 1.8 35.3 52 -7 19.4
01:35 1013 29.91 842 24.86 2.1 35.8 52 -6.8 19.8
01:40 1013 29.91 842 24.86 2 35.6 52 -6.7 19.9
01:45 1013 29.91 842 24.86 2 35.5 53 -6.6 20
01:50 1013 29.91 842 24.86 1.9 35.5 53 -6.6 20.1
01:55 1013 29.91 842 24.86 1.9 35.4 53 -6.7 19.9
02:00 1013 29.91 842 24.86 2 35.7 53 -6.7 20
02:05 1013 29.91 842 24.86 2 35.6 54 -6.4 20.4
02:10 1013 29.91 842 24.86 1.9 35.5 53 -6.6 20.1
02:15 1013 29.91 842 24.86 2 35.7 52 -6.7 19.9
02:20 1013 29.91 842 24.86 2.1 35.8 53 -6.6 20.2
02:25 1013 29.91 842 24.86 2 35.7 53 -6.7 20
02:30 1013 29.91 842 24.86 2.1 35.8 53 -6.6 20.2
02:35 1013 29.91 842 24.86 2.1 35.9 53 -6.4 20.4
02:40 1013 29.91 842 24.86 2 35.6 54 -6.4 20.4
02:45 1013 29.91 842 24.86 1.9 35.5 52 -6.9 19.6
02:50 1013 29.91 842 24.86 2.7 36.8 50 -6.8 19.7
02:55 1013 29.91 842 24.86 2.7 36.8 50 -6.6 20.1
03:00 1013 29.91 842 24.86 2.6 36.8 51 -6.6 20.1
03:05 1013 29.91 842 24.86 2.7 36.9 50 -6.5 20.2
03:10 1013 29.91 842 24.86 2.6 36.7 51 -6.5 20.2
03:15 1012 29.88 842 24.86 2.4 36.4 52 -6.4 20.5
03:20 1012 29.88 842 24.86 2.4 36.2 52 -6.4 20.5
03:25 1012 29.88 842 24.86 2.2 36 53 -6.4 20.5
03:30 1012 29.88 841 24.83 2.1 35.9 54 -6.3 20.6
03:35 1012 29.88 841 24.83 2.2 36 53 -6.3 20.6
03:40 1012 29.88 841 24.83 2.2 36 53 -6.3 20.6
03:45 1012 29.88 841 24.83 2.3 36.1 53 -6.3 20.6
03:50 1012 29.88 841 24.83 2.4 36.3 52 -6.5 20.3
03:55 1012 29.88 841 24.83 2.6 36.6 52 -6.4 20.5
04:00 1012 29.88 841 24.83 2.6 36.7 52 -6.4 20.6
04:05 1012 29.88 841 24.83 2.7 36.9 51 -6.4 20.5
04:10 1012 29.88 841 24.83 2.8 37 51 -6.3 20.7
04:15 1012 29.88 841 24.83 2.8 37 52 -6.1 21.1
04:20 1012 29.88 841 24.83 2.7 36.9 51 -6.3 20.6
04:25 1012 29.88 841 24.83 3 37.4 52 -6 21.2
04:30 1012 29.88 841 24.83 3.1 37.5 52 -5.8 21.6
04:35 1012 29.88 841 24.83 3.1 37.5 54 -5.4 22.3
04:40 1012 29.88 841 24.83 3.2 37.7 52 -5.7 21.8
04:45 1011 29.85 841 24.83 3 37.4 54 -5.4 22.2
04:50 1011 29.85 841 24.83 2.7 36.8 54 -5.7 21.8
04:55 1011 29.85 841 24.83 2.5 36.6 54 -5.8 21.6
05:00 1011 29.85 840 24.81 2.1 35.7 58 -5.4 22.2
05:05 1011 29.85 840 24.81 1.9 35.4 57 -5.7 21.7
05:10 1011 29.85 840 24.81 2 35.7 57 -5.5 22.1
05:15 1011 29.85 840 24.81 2 35.6 57 -5.6 21.8
05:20 1011 29.85 840 24.81 2.2 36 56 -5.6 21.9
05:25 1011 29.85 840 24.81 2.4 36.2 55 -5.7 21.7
05:30 1011 29.85 840 24.81 2.5 36.5 56 -5.5 22.1
05:35 1011 29.85 840 24.81 2.3 36.1 57 -5.3 22.5
05:40 1011 29.85 840 24.81 2.1 35.7 57 -5.5 22.1
05:45 1011 29.85 840 24.81 2.4 36.3 56 -5.5 22
05:50 1011 29.85 840 24.81 2.3 36.2 57 -5.3 22.4
05:55 1011 29.85 840 24.81 2 35.6 59 -5.3 22.5
06:00 1011 29.85 840 24.81 1.7 35.1 59 -5.5 22.1
06:05 1011 29.85 840 24.81 1.9 35.4 58 -5.5 22.1
06:10 1011 29.85 840 24.81 2 35.6 58 -5.4 22.2
06:15 1011 29.85 840 24.81 1.8 35.2 59 -5.5 22.2
06:20 1011 29.85 840 24.81 1.7 35 59 -5.5 22.2
06:25 1011 29.85 840 24.81 1.7 35 59 -5.6 22
06:30 1011 29.85 840 24.81 1.8 35.3 58 -5.7 21.8
06:35 1011 29.85 840 24.81 2.1 35.8 57 -5.5 22
06:40 1011 29.85 840 24.81 2 35.6 57 -5.6 21.9
06:45 1011 29.85 840 24.81 2.1 35.8 57 -5.6 21.9
06:50 1011 29.85 840 24.81 2.2 35.9 57 -5.4 22.3
06:55 1011 29.85 840 24.81 2.2 35.9 56 -5.7 21.7
07:00 1011 29.85 840 24.81 2.5 36.5 55 -5.5 22
07:05 1010 29.83 840 24.81 2.3 36.1 56 -5.5 22.1
07:10 1010 29.83 840 24.81 2.2 35.9 57 -5.5 22.1
07:15 1010 29.83 839 24.78 2.3 36.1 57 -5.3 22.4
07:20 1010 29.83 839 24.78 2.3 36.2 57 -5.4 22.4
07:25 1010 29.83 839 24.78 2.5 36.5 56 -5.3 22.5
07:30 1010 29.83 839 24.78 2.7 36.9 57 -5 22.9
07:35 1010 29.83 839 24.78 2.9 37.3 56 -5 23
07:40 1010 29.83 839 24.78 2.7 36.8 57 -4.9 23.2
07:45 1009 29.8 839 24.78 2.4 36.3 58 -5.1 22.8
07:50 1009 29.8 839 24.78 2.3 36.2 57 -5.3 22.5
07:55 1009 29.8 838 24.75 2.4 36.4 58 -5.1 22.8
08:00 1009 29.8 838 24.75 2.5 36.5 57 -5.2 22.7
08:05 1009 29.8 838 24.75 2.7 36.9 56 -5.1 22.8
08:10 1009 29.8 838 24.75 3.1 37.5 55 -5.1 22.8
08:15 1009 29.8 838 24.75 3.6 38.4 54 -4.8 23.4
08:20 1009 29.8 838 24.75 3.6 38.5 56 -4.4 24.1
08:25 1009 29.8 838 24.75 3.7 38.6 55 -4.6 23.8
08:30 1009 29.8 838 24.75 3.9 38.9 56 -4.2 24.5
08:35 1009 29.8 838 24.75 4.1 39.4 56 -3.8 25.1
08:40 1009 29.8 838 24.75 4.3 39.8 55 -3.9 25
08:45 1009 29.8 838 24.75 4.7 40.5 56 -3.3 26.1
08:50 1008 29.77 838 24.75 5.4 41.8 53 -3.3 26.1
08:55 1008 29.77 837 24.72 6.2 43.2 50 -3.3 26
09:00 1008 29.77 837 24.72 6.9 44.4 49 -3.2 26.2
09:05 1008 29.77 837 24.72 7.2 44.9 49 -2.9 26.8
09:10 1008 29.77 837 24.72 7 44.7 50 -2.8 27
09:15 1008 29.77 837 24.72 7.1 44.8 49 -2.9 26.8
09:20 1008 29.77 837 24.72 7.5 45.6 46 -3.2 26.2
09:25 1008 29.77 837 24.72 7.9 46.2 47 -2.8 27
09:30 1008 29.77 837 24.72 7.8 46.1 46 -3 26.6
09:35 1008 29.77 837 24.72 7.7 45.8 48 -2.6 27.3
09:40 1008 29.77 837 24.72 7.5 45.5 49 -2.6 27.3
09:45 1008 29.77 837 24.72 7.3 45.2 49 -2.7 27.1
09:50 1008 29.77 837 24.72 7.2 44.9 51 -2.4 27.8
09:55 1008 29.77 837 24.72 7.1 44.7 49 -2.8 27
10:00 1008 29.77 837 24.72 7.2 44.9 50 -2.5 27.5
10:05 1008 29.77 837 24.72 7.1 44.8 51 -2.4 27.7
10:10 1008 29.77 837 24.72 7.1 44.8 49 -2.8 27
10:15 1008 29.77 837 24.72 7.3 45.2 50 -2.5 27.5
10:20 1008 29.77 837 24.72 7.3 45.1 50 -2.6 27.4
10:25 1008 29.77 837 24.72 7.1 44.8 50 -2.5 27.5
10:30 1007 29.74 837 24.72 7.3 45.2 49 -2.8 27
10:35 1007 29.74 837 24.72 7.4 45.3 50 -2.2 28
10:40 1007 29.74 836 24.69 7.4 45.3 47 -3.2 26.3
10:45 1007 29.74 836 24.69 8 46.4 46 -2.8 26.9
10:50 1007 29.74 836 24.69 8 46.5 46 -2.9 26.7
10:55 1007 29.74 836 24.69 8 46.5 46 -2.9 26.8
11:00 1007 29.74 836 24.69 8 46.5 45 -3.1 26.5
11:05 1007 29.74 836 24.69 8 46.4 45 -3.3 26.1
11:10 1006 29.71 836 24.69 8.2 46.8 44 -3.2 26.2
11:15 1006 29.71 835 24.66 8 46.3 47 -2.8 27
11:20 1006 29.71 835 24.66 7.6 45.6 47 -3.1 26.5
11:25 1006 29.71 835 24.66 7.3 45.1 48 -3 26.7
11:30 1006 29.71 835 24.66 7.1 44.8 48 -3.2 26.3
11:35 1006 29.71 835 24.66 7.3 45.1 46 -3.6 25.5
11:40 1006 29.71 835 24.66 7.9 46.2 44 -3.6 25.5
11:45 1006 29.71 835 24.66 8.3 46.9 42 -3.8 25.1
11:50 1005 29.68 835 24.66 8.6 47.5 42 -3.6 25.5
11:55 1005 29.68 835 24.66 8.7 47.7 43 -3 26.5
12:00 1005 29.68 835 24.66 8.6 47.4 43 -3.2 26.3
12:05 1005 29.68 834 24.63 8.4 47 45 -2.9 26.8
12:10 1005 29.68 835 24.66 8.1 46.7 45 -3 26.6
12:15 1005 29.68 834 24.63 8.2 46.7 45 -3 26.7
12:20 1005 29.68 834 24.63 8.1 46.6 45 -3.1 26.4
12:25 1005 29.68 834 24.63 8.1 46.6 44 -3.3 26.1
12:30 1005 29.68 834 24.63 8.4 47 44 -3.1 26.4
12:35 1005 29.68 834 24.63 8.7 47.7 43 -3.1 26.5
12:40 1005 29.68 834 24.63 8.6 47.5 43 -3.2 26.3
12:45 1004 29.65 834 24.63 8.5 47.2 45 -2.8 26.9
12:50 1004 29.65 833 24.6 8.4 47.1 44 -3.1 26.4
12:55 1004 29.65 833 24.6 8.4 47.1 45 -3 26.7
13:00 1004 29.65 833 24.6 8.3 46.9 44 -3.1 26.4
13:05 1004 29.65 833 24.6 8.2 46.8 44 -3.3 26
13:10 1004 29.65 833 24.6 8.5 47.3 41 -3.9 24.9
13:15 1004 29.65 833 24.6 8.9 48.1 39 -4.1 24.6
13:20 1003 29.62 833 24.6 9.1 48.5 40 -3.7 25.4
13:25 1003 29.62 832 24.57 9.2 48.5 39 -4.1 24.7
13:30 1003 29.62 832 24.57 9.4 49 39 -3.8 25.1
13:35 1003 29.62 832 24.57 9.5 49 38 -4 24.9
13:40 1003 29.62 832 24.57 9.6 49.2 38 -4 24.9
13:45 1003 29.62 832 24.57 9.4 48.9 40 -3.6 25.5
13:50 1002 29.59 832 24.57 9.1 48.3 40 -3.7 25.3
13:55 1002 29.59 831 24.54 9.4 49 39 -3.7 25.4
14:00 1002 29.59 831 24.54 9.4 49 37 -4.6 23.8
14:05 1002 29.59 831 24.54 9.7 49.5 36 -4.6 23.7
14:10 1002 29.59 831 24.54 10 50.1 35 -4.6 23.7
14:15 1002 29.59 831 24.54 10 50 36 -4.2 24.4
14:20 1002 29.59 831 24.54 10 50 36 -4.3 24.3
14:25 1001 29.56 831 24.54 9.8 49.6 38 -4 24.8
14:30 1001 29.56 830 24.51 9.6 49.3 38 -3.9 25
14:35 1001 29.56 830 24.51 9.6 49.2 38 -4.1 24.7
14:40 1001 29.56 830 24.51 9.3 48.7 41 -3.4 26
14:45 1001 29.56 830 24.51 8.9 47.9 39 -4.2 24.5
14:50 1001 29.56 830 24.51 9 48.1 40 -4 24.8
14:55 1000 29.53 830 24.51 9.1 48.5 39 -4 24.8
15:00 1000 29.53 830 24.51 9 48.2 40 -3.7 25.3
15:05 1000 29.53 830 24.51 9 48.1 40 -4 24.8
15:10 1000 29.53 830 24.51 8.6 47.5 42 -3.6 25.5
15:15 1000 29.53 829 24.48 8.9 48.1 40 -4 24.7
15:20 1000 29.53 829 24.48 9.1 48.3 38 -4.6 23.8
15:25 1000 29.53 829 24.48 9.1 48.5 41 -3.5 25.7
15:30 1000 29.53 829 24.48 8.7 47.7 42 -3.5 25.7
15:35 1000 29.53 829 24.48 8.5 47.3 43 -3.3 26
15:40 1000 29.53 829 24.48 8.4 47.1 44 -3.2 26.3
15:45 1000 29.53 829 24.48 8.2 46.7 45 -3 26.7
15:50 1000 29.53 830 24.51 8 46.4 45 -3 26.5
15:55 1000 29.53 830 24.51 7.8 46 47 -2.9 26.8
16:00 1000 29.53 829 24.48 7.4 45.2 49 -2.6 27.2
16:05 1000 29.53 830 24.51 7.3 45.1 47 -3.3 26
16:10 1000 29.53 829 24.48 7.7 45.8 47 -2.9 26.7
16:15 1000 29.53 829 24.48 7.3 45.1 49 -2.9 26.9
16:20 1000 29.53 829 24.48 7.3 45.2 46 -3.4 25.9
16:25 1000 29.53 829 24.48 7.4 45.3 47 -3.2 26.3
16:30 1000 29.53 829 24.48 7.4 45.3 47 -3.2 26.2
16:35 1000 29.53 829 24.48 7.5 45.5 47 -3.2 26.2
16:40 1000 29.53 829 24.48 7.4 45.2 47 -3.2 26.2
16:45 1000 29.53 829 24.48 7.4 45.3 46 -3.4 26
16:50 1000 29.53 829 24.48 7.4 45.3 46 -3.3 26.1
16:55 1000 29.53 829 24.48 7.3 45.1 47 -3.3 26.1
17:00 1000 29.53 829 24.48 7.3 45.2 48 -3 26.6
17:05 1000 29.53 829 24.48 7.2 45 47 -3.2 26.3
17:10 1000 29.53 829 24.48 7.4 45.2 46 -3.6 25.5
17:15 1000 29.53 829 24.48 7.4 45.4 45 -3.7 25.4
17:20 1000 29.53 829 24.48 7.5 45.5 44 -4 24.8
17:25 1000 29.53 829 24.48 7.8 46 39 -5.3 22.5
17:30 1000 29.53 829 24.48 8.1 46.5 39 -4.9 23.2
17:35 1000 29.53 829 24.48 8.2 46.7 38 -5.3 22.5
17:40 1000 29.53 829 24.48 8.2 46.7 41 -4.4 24
17:45 1000 29.53 829 24.48 7.9 46.2 41 -4.5 23.8
17:50 1000 29.53 829 24.48 7.8 46 41 -4.7 23.6
17:55 1000 29.53 829 24.48 7.8 46 40 -5 23
18:00 1000 29.53 829 24.48 8 46.3 37 -5.6 21.8
18:05 1000 29.53 829 24.48 8.1 46.5 37 -5.6 21.9
18:10 1000 29.53 829 24.48 8.1 46.6 38 -5.3 22.4
18:15 1000 29.53 829 24.48 8 46.3 39 -5.3 22.5
18:20 1000 29.53 829 24.48 7.7 45.9 40 -5.2 22.7
18:25 1000 29.53 829 24.48 7.7 45.8 40 -5.1 22.9
18:30 1000 29.53 829 24.48 7.6 45.7 37 -6.1 21.1
18:35 1000 29.53 829 24.48 7.7 45.9 38 -5.6 22
18:40 1000 29.53 829 24.48 7.6 45.6 38 -5.9 21.4
18:45 1000 29.53 829 24.48 7.6 45.6 38 -5.7 21.7
18:50 1000 29.53 829 24.48 7.4 45.3 39 -5.7 21.8
18:55 1000 29.53 829 24.48 7.3 45.1 41 -5.1 22.8
19:00 1000 29.53 829 24.48 7.1 44.7 41 -5.2 22.7
19:05 1000 29.53 830 24.51 7.1 44.7 43 -4.7 23.6
19:10 1001 29.56 830 24.51 5.3 41.6 66 -0.4 31.3
19:15 1002 29.59 831 24.54 2.5 36.4 77 -1.2 29.9
19:20 1002 29.59 831 24.54 1.4 34.5 80 -1.7 29
19:25 1002 29.59 831 24.54 0.7 33.3 82 -1.9 28.5
19:30 1003 29.62 832 24.57 0.4 32.7 84 -1.9 28.5
19:35 1003 29.62 832 24.57 0 32 89 -1.7 29
19:40 1003 29.62 832 24.57 -0.3 31.4 89 -1.9 28.6
19:45 1003 29.62 832 24.57 -0.5 31.2 89 -2 28.3
19:50 1003 29.62 832 24.57 -0.5 31.1 89 -2.1 28.3
19:55 1003 29.62 832 24.57 -0.6 31 89 -2.1 28.2
20:00 1003 29.62 832 24.57 -0.7 30.8 89 -2.2 28.1
20:05 1003 29.62 833 24.6 -0.7 30.7 90 -2.2 28.1
20:10 1003 29.62 833 24.6 -0.7 30.7 90 -2.2 28.1
20:15 1003 29.62 833 24.6 -0.8 30.5 91 -2.2 28.1
20:20 1004 29.65 833 24.6 -0.9 30.4 91 -2.2 28
20:25 1004 29.65 833 24.6 -0.9 30.3 91 -2.2 28
20:30 1004 29.65 834 24.63 -0.9 30.3 91 -2.2 28
20:35 1004 29.65 833 24.6 -1 30.1 92 -2.2 28.1
20:40 1004 29.65 833 24.6 -1.1 30 93 -2.1 28.2
20:45 1004 29.65 833 24.6 -1.2 29.9 93 -2.1 28.2
20:50 1004 29.65 833 24.6 -1.2 29.9 94 -2.1 28.3
20:55 1004 29.65 833 24.6 -1.2 29.9 94 -2.1 28.3
21:00 1003 29.62 833 24.6 -1.2 29.8 94 -2 28.3
21:05 1003 29.62 833 24.6 -1.1 30 94 -2 28.4
21:10 1004 29.65 833 24.6 -1 30.2 93 -1.9 28.5
21:15 1003 29.62 833 24.6 -0.9 30.4 92 -2 28.4
21:20 1003 29.62 832 24.57 -0.8 30.6 92 -1.9 28.5
21:25 1003 29.62 832 24.57 -0.7 30.8 92 -1.8 28.7
21:30 1003 29.62 832 24.57 -0.7 30.7 92 -1.9 28.6
21:35 1003 29.62 833 24.6 -0.8 30.6 92 -1.9 28.5
21:40 1003 29.62 833 24.6 -0.8 30.6 92 -1.9 28.6
21:45 1003 29.62 833 24.6 -0.8 30.6 92 -1.9 28.6
21:50 1003 29.62 833 24.6 -0.9 30.4 92 -2 28.4
21:55 1003 29.62 833 24.6 -0.9 30.3 92 -2.1 28.3
22:00 1003 29.62 832 24.57 -1 30.2 92 -2.2 28.1
22:05 1003 29.62 832 24.57 -1.1 29.9 92 -2.3 27.9
22:10 1003 29.62 832 24.57 -1.1 30 92 -2.3 27.9
22:15 1003 29.62 832 24.57 -1.1 30 92 -2.3 27.9
22:20 1003 29.62 832 24.57 -1.2 29.8 92 -2.4 27.7
22:25 1003 29.62 832 24.57 -1.3 29.6 92 -2.5 27.6
22:30 1003 29.62 832 24.57 -1.4 29.6 92 -2.5 27.4
22:35 1003 29.62 832 24.57 -1.4 29.5 92 -2.6 27.3
22:40 1003 29.62 832 24.57 -1.4 29.5 91 -2.7 27.2
22:45 1003 29.62 832 24.57 -1.3 29.6 91 -2.7 27.2
22:50 1003 29.62 832 24.57 -1.3 29.6 90 -2.7 27.1
22:55 1003 29.62 832 24.57 -1.3 29.7 89 -2.8 26.9
23:00 1003 29.62 832 24.57 -1.4 29.4 90 -2.9 26.8
23:05 1003 29.62 832 24.57 -1.7 28.9 92 -2.9 26.8
23:10 1003 29.62 832 24.57 -2.1 28.3 93 -3 26.6
23:15 1003 29.62 832 24.57 -2.1 28.2 93 -3.1 26.5
23:20 1003 29.62 832 24.57 -2 28.4 92 -3.2 26.3
23:25 1003 29.62 832 24.57 -1.7 28.9 87 -3.6 25.5
23:30 1003 29.62 832 24.57 -1.4 29.5 85 -3.6 25.6
23:35 1002 29.59 832 24.57 -1.3 29.6 83 -3.9 25.1
23:40 1002 29.59 832 24.57 -1 30.3 77 -4.5 23.8
23:45 1002 29.59 831 24.54 -0.7 30.7 75 -4.5 23.8
23:50 1002 29.59 831 24.54 -0.9 30.4 73 -5.1 22.9
23:55 1002 29.59 831 24.54 -0.3 31.5 63 -6.4 20.4
24:00 1002 29.59 831 24.54 0.5 32.9 61 -6.2 20.8